sensor_id;sensor_type;location;lat;lon;timestamp;temperature;humidity
70244;DHT22;57634;51.136;17.024;2023-03-12T00:02:35;1.10;79.50
70244;DHT22;57634;51.136;17.024;2023-03-12T00:05:40;1.10;79.50
70244;DHT22;57634;51.136;17.024;2023-03-12T00:09:08;1.00;79.50
70244;DHT22;57634;51.136;17.024;2023-03-12T00:12:09;1.00;79.60
70244;DHT22;57634;51.136;17.024;2023-03-12T00:15:11;1.00;79.70
70244;DHT22;57634;51.136;17.024;2023-03-12T00:18:13;1.00;79.60
70244;DHT22;57634;51.136;17.024;2023-03-12T00:21:14;1.00;79.70
70244;DHT22;57634;51.136;17.024;2023-03-12T00:24:16;0.90;79.70
70244;DHT22;57634;51.136;17.024;2023-03-12T00:27:18;1.00;79.80
70244;DHT22;57634;51.136;17.024;2023-03-12T00:30:21;0.90;79.80
70244;DHT22;57634;51.136;17.024;2023-03-12T00:33:23;0.90;79.90
70244;DHT22;57634;51.136;17.024;2023-03-12T00:36:27;1.00;79.90
70244;DHT22;57634;51.136;17.024;2023-03-12T00:39:31;0.90;79.70
70244;DHT22;57634;51.136;17.024;2023-03-12T00:42:32;1.00;79.70
70244;DHT22;57634;51.136;17.024;2023-03-12T00:45:33;0.90;79.70
70244;DHT22;57634;51.136;17.024;2023-03-12T00:49:00;1.00;79.70
70244;DHT22;57634;51.136;17.024;2023-03-12T00:53:31;1.00;79.60
70244;DHT22;57634;51.136;17.024;2023-03-12T00:56:32;1.00;79.50
70244;DHT22;57634;51.136;17.024;2023-03-12T00:59:33;1.00;79.40
70244;DHT22;57634;51.136;17.024;2023-03-12T01:02:39;1.00;79.30
70244;DHT22;57634;51.136;17.024;2023-03-12T01:05:40;1.00;79.20
70244;DHT22;57634;51.136;17.024;2023-03-12T01:08:41;1.00;79.10
70244;DHT22;57634;51.136;17.024;2023-03-12T01:11:42;1.00;79.00
70244;DHT22;57634;51.136;17.024;2023-03-12T01:14:44;1.00;79.00
70244;DHT22;57634;51.136;17.024;2023-03-12T01:17:45;1.00;78.80
70244;DHT22;57634;51.136;17.024;2023-03-12T01:20:47;1.00;78.70
70244;DHT22;57634;51.136;17.024;2023-03-12T01:23:49;1.00;78.70
70244;DHT22;57634;51.136;17.024;2023-03-12T01:26:50;1.10;78.60
70244;DHT22;57634;51.136;17.024;2023-03-12T01:29:52;1.10;78.40
70244;DHT22;57634;51.136;17.024;2023-03-12T01:33:21;1.10;78.40
70244;DHT22;57634;51.136;17.024;2023-03-12T01:36:25;1.10;78.40
70244;DHT22;57634;51.136;17.024;2023-03-12T01:39:26;1.10;78.40
70244;DHT22;57634;51.136;17.024;2023-03-12T01:42:28;1.10;78.30
70244;DHT22;57634;51.136;17.024;2023-03-12T01:48:47;1.10;78.10
70244;DHT22;57634;51.136;17.024;2023-03-12T01:55:30;1.10;77.90
70244;DHT22;57634;51.136;17.024;2023-03-12T01:58:33;1.10;77.80
70244;DHT22;57634;51.136;17.024;2023-03-12T02:01:36;1.00;77.80
70244;DHT22;57634;51.136;17.024;2023-03-12T02:04:39;1.10;77.80
70244;DHT22;57634;51.136;17.024;2023-03-12T02:07:41;1.10;77.70
70244;DHT22;57634;51.136;17.024;2023-03-12T02:10:43;1.10;77.60
70244;DHT22;57634;51.136;17.024;2023-03-12T02:13:45;1.10;77.50
70244;DHT22;57634;51.136;17.024;2023-03-12T02:16:47;1.10;77.30
70244;DHT22;57634;51.136;17.024;2023-03-12T02:23:40;1.20;77.10
70244;DHT22;57634;51.136;17.024;2023-03-12T02:26:43;1.20;77.00
70244;DHT22;57634;51.136;17.024;2023-03-12T02:29:45;1.20;76.90
70244;DHT22;57634;51.136;17.024;2023-03-12T02:32:47;1.30;76.80
70244;DHT22;57634;51.136;17.024;2023-03-12T02:35:51;1.20;76.60
70244;DHT22;57634;51.136;17.024;2023-03-12T02:38:54;1.30;76.50
70244;DHT22;57634;51.136;17.024;2023-03-12T02:41:57;1.30;76.50
70244;DHT22;57634;51.136;17.024;2023-03-12T02:44:59;1.30;76.40
70244;DHT22;57634;51.136;17.024;2023-03-12T02:48:02;1.30;76.30
70244;DHT22;57634;51.136;17.024;2023-03-12T02:51:04;1.30;76.30
70244;DHT22;57634;51.136;17.024;2023-03-12T02:54:06;1.30;76.10
70244;DHT22;57634;51.136;17.024;2023-03-12T02:57:35;1.30;76.00
70244;DHT22;57634;51.136;17.024;2023-03-12T03:00:40;1.30;75.90
70244;DHT22;57634;51.136;17.024;2023-03-12T03:03:41;1.30;75.90
70244;DHT22;57634;51.136;17.024;2023-03-12T03:06:43;1.30;75.70
70244;DHT22;57634;51.136;17.024;2023-03-12T03:09:45;1.30;75.50
70244;DHT22;57634;51.136;17.024;2023-03-12T03:12:46;1.30;75.40
70244;DHT22;57634;51.136;17.024;2023-03-12T03:15:48;1.30;75.30
70244;DHT22;57634;51.136;17.024;2023-03-12T03:18:50;1.30;75.30
70244;DHT22;57634;51.136;17.024;2023-03-12T03:21:52;1.30;75.10
70244;DHT22;57634;51.136;17.024;2023-03-12T03:24:53;1.30;75.00
70244;DHT22;57634;51.136;17.024;2023-03-12T03:27:55;1.30;74.80
70244;DHT22;57634;51.136;17.024;2023-03-12T03:30:57;1.30;74.80
70244;DHT22;57634;51.136;17.024;2023-03-12T03:34:02;1.30;74.70
70244;DHT22;57634;51.136;17.024;2023-03-12T03:37:29;1.30;74.50
70244;DHT22;57634;51.136;17.024;2023-03-12T03:40:30;1.40;74.50
70244;DHT22;57634;51.136;17.024;2023-03-12T03:43:31;1.40;74.50
70244;DHT22;57634;51.136;17.024;2023-03-12T03:46:33;1.30;74.30
70244;DHT22;57634;51.136;17.024;2023-03-12T03:49:37;1.40;74.30
70244;DHT22;57634;51.136;17.024;2023-03-12T03:52:38;1.30;74.20
70244;DHT22;57634;51.136;17.024;2023-03-12T03:55:39;1.30;74.20
70244;DHT22;57634;51.136;17.024;2023-03-12T03:58:40;1.30;74.20
70244;DHT22;57634;51.136;17.024;2023-03-12T04:01:41;1.30;74.10
70244;DHT22;57634;51.136;17.024;2023-03-12T04:04:43;1.30;74.10
70244;DHT22;57634;51.136;17.024;2023-03-12T04:07:44;1.30;74.10
70244;DHT22;57634;51.136;17.024;2023-03-12T04:10:46;1.30;74.00
70244;DHT22;57634;51.136;17.024;2023-03-12T04:13:48;1.30;74.00
70244;DHT22;57634;51.136;17.024;2023-03-12T04:16:49;1.30;74.00
70244;DHT22;57634;51.136;17.024;2023-03-12T04:20:19;1.40;74.10
70244;DHT22;57634;51.136;17.024;2023-03-12T04:23:20;1.40;74.10
70244;DHT22;57634;51.136;17.024;2023-03-12T04:26:21;1.50;74.10
70244;DHT22;57634;51.136;17.024;2023-03-12T04:29:22;1.60;73.90
70244;DHT22;57634;51.136;17.024;2023-03-12T04:32:24;1.70;73.70
70244;DHT22;57634;51.136;17.024;2023-03-12T04:35:25;1.70;73.50
70244;DHT22;57634;51.136;17.024;2023-03-12T04:38:28;1.80;73.40
70244;DHT22;57634;51.136;17.024;2023-03-12T04:41:30;1.90;73.30
70244;DHT22;57634;51.136;17.024;2023-03-12T04:44:31;1.90;73.10
70244;DHT22;57634;51.136;17.024;2023-03-12T04:47:33;1.90;72.70
70244;DHT22;57634;51.136;17.024;2023-03-12T04:50:34;1.90;72.50
70244;DHT22;57634;51.136;17.024;2023-03-12T04:53:35;1.90;72.30
70244;DHT22;57634;51.136;17.024;2023-03-12T04:56:36;1.90;72.10
70244;DHT22;57634;51.136;17.024;2023-03-12T04:59:37;1.90;71.90
70244;DHT22;57634;51.136;17.024;2023-03-12T05:02:40;1.90;71.80
70244;DHT22;57634;51.136;17.024;2023-03-12T05:06:08;1.90;71.70
70244;DHT22;57634;51.136;17.024;2023-03-12T05:09:09;1.80;71.60
70244;DHT22;57634;51.136;17.024;2023-03-12T05:12:10;1.80;71.50
70244;DHT22;57634;51.136;17.024;2023-03-12T05:15:11;1.80;71.60
70244;DHT22;57634;51.136;17.024;2023-03-12T05:18:13;1.80;71.50
70244;DHT22;57634;51.136;17.024;2023-03-12T05:21:19;1.80;71.40
70244;DHT22;57634;51.136;17.024;2023-03-12T05:24:21;1.80;71.40
70244;DHT22;57634;51.136;17.024;2023-03-12T05:27:23;1.80;71.20
70244;DHT22;57634;51.136;17.024;2023-03-12T05:30:26;1.80;71.10
70244;DHT22;57634;51.136;17.024;2023-03-12T05:33:27;1.80;70.90
70244;DHT22;57634;51.136;17.024;2023-03-12T05:36:29;1.80;71.00
70244;DHT22;57634;51.136;17.024;2023-03-12T05:39:30;1.90;71.10
70244;DHT22;57634;51.136;17.024;2023-03-12T05:42:31;2.10;71.00
70244;DHT22;57634;51.136;17.024;2023-03-12T05:46:04;2.30;70.80
70244;DHT22;57634;51.136;17.024;2023-03-12T05:49:05;2.60;70.50
70244;DHT22;57634;51.136;17.024;2023-03-12T05:52:06;2.90;69.90
70244;DHT22;57634;51.136;17.024;2023-03-12T05:55:08;3.00;68.90
70244;DHT22;57634;51.136;17.024;2023-03-12T05:58:10;3.10;68.20
70244;DHT22;57634;51.136;17.024;2023-03-12T06:01:14;3.10;68.30
70244;DHT22;57634;51.136;17.024;2023-03-12T06:04:16;3.30;68.10
70244;DHT22;57634;51.136;17.024;2023-03-12T06:07:17;3.50;67.30
70244;DHT22;57634;51.136;17.024;2023-03-12T06:10:18;3.60;66.70
70244;DHT22;57634;51.136;17.024;2023-03-12T06:13:20;3.60;66.30
70244;DHT22;57634;51.136;17.024;2023-03-12T06:16:24;3.60;66.30
70244;DHT22;57634;51.136;17.024;2023-03-12T06:19:26;3.70;66.70
70244;DHT22;57634;51.136;17.024;2023-03-12T06:22:56;4.00;66.80
70244;DHT22;57634;51.136;17.024;2023-03-12T06:25:58;4.50;66.70
70244;DHT22;57634;51.136;17.024;2023-03-12T06:28:59;5.10;65.90
70244;DHT22;57634;51.136;17.024;2023-03-12T06:32:00;5.60;65.00
70244;DHT22;57634;51.136;17.024;2023-03-12T06:35:02;6.10;63.60
70244;DHT22;57634;51.136;17.024;2023-03-12T06:38:06;6.60;62.10
70244;DHT22;57634;51.136;17.024;2023-03-12T06:41:10;7.00;60.50
70244;DHT22;57634;51.136;17.024;2023-03-12T06:44:12;7.50;59.90
70244;DHT22;57634;51.136;17.024;2023-03-12T06:47:13;7.90;59.40
70244;DHT22;57634;51.136;17.024;2023-03-12T06:50:14;8.50;58.30
70244;DHT22;57634;51.136;17.024;2023-03-12T06:53:15;9.00;57.50
70244;DHT22;57634;51.136;17.024;2023-03-12T06:56:17;9.30;55.50
70244;DHT22;57634;51.136;17.024;2023-03-12T06:59:18;9.30;54.80
70244;DHT22;57634;51.136;17.024;2023-03-12T07:02:47;9.30;54.70
70244;DHT22;57634;51.136;17.024;2023-03-12T07:05:50;9.50;53.90
70244;DHT22;57634;51.136;17.024;2023-03-12T07:08:51;9.60;52.70
70244;DHT22;57634;51.136;17.024;2023-03-12T07:11:52;9.70;52.30
70244;DHT22;57634;51.136;17.024;2023-03-12T07:14:53;9.80;51.30
70244;DHT22;57634;51.136;17.024;2023-03-12T07:21:06;10.20;50.70
70244;DHT22;57634;51.136;17.024;2023-03-12T07:24:07;10.50;50.50
70244;DHT22;57634;51.136;17.024;2023-03-12T07:27:10;10.80;50.30
70244;DHT22;57634;51.136;17.024;2023-03-12T07:30:12;11.00;48.90
70244;DHT22;57634;51.136;17.024;2023-03-12T07:33:13;10.90;48.80
70244;DHT22;57634;51.136;17.024;2023-03-12T07:36:14;10.60;48.40
70244;DHT22;57634;51.136;17.024;2023-03-12T07:39:42;10.10;48.20
70244;DHT22;57634;51.136;17.024;2023-03-12T07:42:45;9.50;48.80
70244;DHT22;57634;51.136;17.024;2023-03-12T07:45:46;9.00;49.50
70244;DHT22;57634;51.136;17.024;2023-03-12T07:48:48;8.50;49.90
70244;DHT22;57634;51.136;17.024;2023-03-12T07:51:49;8.00;50.80
70244;DHT22;57634;51.136;17.024;2023-03-12T07:54:50;7.60;51.30
70244;DHT22;57634;51.136;17.024;2023-03-12T07:57:54;7.30;52.10
70244;DHT22;57634;51.136;17.024;2023-03-12T08:00:58;7.10;52.90
70244;DHT22;57634;51.136;17.024;2023-03-12T08:04:01;6.90;53.30
70244;DHT22;57634;51.136;17.024;2023-03-12T08:07:02;6.80;53.80
70244;DHT22;57634;51.136;17.024;2023-03-12T08:10:07;6.70;54.20
70244;DHT22;57634;51.136;17.024;2023-03-12T08:13:09;6.70;54.20
70244;DHT22;57634;51.136;17.024;2023-03-12T08:16:37;6.70;54.50
70244;DHT22;57634;51.136;17.024;2023-03-12T08:19:38;6.80;54.80
70244;DHT22;57634;51.136;17.024;2023-03-12T08:22:42;6.90;54.90
70244;DHT22;57634;51.136;17.024;2023-03-12T08:25:47;7.10;55.00
70244;DHT22;57634;51.136;17.024;2023-03-12T08:28:50;7.30;54.50
70244;DHT22;57634;51.136;17.024;2023-03-12T08:31:51;7.50;54.30
70244;DHT22;57634;51.136;17.024;2023-03-12T08:34:52;7.60;54.10
70244;DHT22;57634;51.136;17.024;2023-03-12T08:37:53;7.60;54.10
70244;DHT22;57634;51.136;17.024;2023-03-12T08:40:57;7.60;53.90
70244;DHT22;57634;51.136;17.024;2023-03-12T08:43:58;7.60;54.30
70244;DHT22;57634;51.136;17.024;2023-03-12T08:46:59;7.60;54.50
70244;DHT22;57634;51.136;17.024;2023-03-12T08:50:01;7.80;54.60
70244;DHT22;57634;51.136;17.024;2023-03-12T08:53:02;8.30;55.10
70244;DHT22;57634;51.136;17.024;2023-03-12T08:56:29;8.80;54.70
70244;DHT22;57634;51.136;17.024;2023-03-12T08:59:30;9.40;54.10
70244;DHT22;57634;51.136;17.024;2023-03-12T09:02:32;10.10;53.30
70244;DHT22;57634;51.136;17.024;2023-03-12T09:05:33;10.60;52.00
70244;DHT22;57634;51.136;17.024;2023-03-12T09:08:34;10.90;50.40
70244;DHT22;57634;51.136;17.024;2023-03-12T09:11:37;11.00;49.80
70244;DHT22;57634;51.136;17.024;2023-03-12T09:14:42;11.20;50.00
70244;DHT22;57634;51.136;17.024;2023-03-12T09:17:43;11.40;48.80
70244;DHT22;57634;51.136;17.024;2023-03-12T09:20:47;11.50;48.60
70244;DHT22;57634;51.136;17.024;2023-03-12T09:23:48;11.70;48.70
70244;DHT22;57634;51.136;17.024;2023-03-12T09:26:50;11.90;48.10
70244;DHT22;57634;51.136;17.024;2023-03-12T09:29:53;12.20;47.70
70244;DHT22;57634;51.136;17.024;2023-03-12T09:32:54;12.30;46.90
70244;DHT22;57634;51.136;17.024;2023-03-12T09:36:21;12.20;46.30
70244;DHT22;57634;51.136;17.024;2023-03-12T09:39:23;11.90;45.70
70244;DHT22;57634;51.136;17.024;2023-03-12T09:42:30;11.70;46.20
70244;DHT22;57634;51.136;17.024;2023-03-12T09:45:38;11.60;46.60
70244;DHT22;57634;51.136;17.024;2023-03-12T09:48:40;11.60;47.10
70244;DHT22;57634;51.136;17.024;2023-03-12T09:51:44;11.70;46.90
70244;DHT22;57634;51.136;17.024;2023-03-12T09:58:33;12.00;46.20
70244;DHT22;57634;51.136;17.024;2023-03-12T10:08:11;11.50;46.10
70244;DHT22;57634;51.136;17.024;2023-03-12T10:11:30;11.50;46.90
70244;DHT22;57634;51.136;17.024;2023-03-12T10:21:34;11.70;46.70
70244;DHT22;57634;51.136;17.024;2023-03-12T10:24:54;11.80;46.70
70244;DHT22;57634;51.136;17.024;2023-03-12T10:34:51;11.30;46.00
70244;DHT22;57634;51.136;17.024;2023-03-12T10:37:58;11.10;46.70
70244;DHT22;57634;51.136;17.024;2023-03-12T10:41:00;10.90;46.80
70244;DHT22;57634;51.136;17.024;2023-03-12T10:44:05;10.80;47.00
70244;DHT22;57634;51.136;17.024;2023-03-12T10:47:36;10.70;47.10
70244;DHT22;57634;51.136;17.024;2023-03-12T10:50:39;10.70;47.50
70244;DHT22;57634;51.136;17.024;2023-03-12T10:53:43;10.80;47.80
70244;DHT22;57634;51.136;17.024;2023-03-12T10:56:50;10.90;47.30
70244;DHT22;57634;51.136;17.024;2023-03-12T11:00:03;11.00;47.10
70244;DHT22;57634;51.136;17.024;2023-03-12T11:03:06;10.90;46.00
70244;DHT22;57634;51.136;17.024;2023-03-12T11:06:24;10.70;45.80
70244;DHT22;57634;51.136;17.024;2023-03-12T11:16:24;10.30;46.00
70244;DHT22;57634;51.136;17.024;2023-03-12T11:19:30;10.20;46.20
70244;DHT22;57634;51.136;17.024;2023-03-12T11:22:33;10.10;46.50
70244;DHT22;57634;51.136;17.024;2023-03-12T11:25:35;10.00;46.70
70244;DHT22;57634;51.136;17.024;2023-03-12T11:29:23;10.00;47.00
70244;DHT22;57634;51.136;17.024;2023-03-12T11:32:23;10.20;47.20
70244;DHT22;57634;51.136;17.024;2023-03-12T11:38:52;10.30;46.60
70244;DHT22;57634;51.136;17.024;2023-03-12T11:42:31;10.30;47.00
70244;DHT22;57634;51.136;17.024;2023-03-12T11:52:05;10.70;47.20
70244;DHT22;57634;51.136;17.024;2023-03-12T12:06:14;11.20;45.60
70244;DHT22;57634;51.136;17.024;2023-03-12T12:09:13;11.20;45.20
70244;DHT22;57634;51.136;17.024;2023-03-12T12:12:26;11.00;44.30
70244;DHT22;57634;51.136;17.024;2023-03-12T12:15:36;10.90;44.30
70244;DHT22;57634;51.136;17.024;2023-03-12T12:28:56;10.40;44.30
70244;DHT22;57634;51.136;17.024;2023-03-12T12:32:01;10.20;44.60
70244;DHT22;57634;51.136;17.024;2023-03-12T12:38:57;10.10;45.70
70244;DHT22;57634;51.136;17.024;2023-03-12T12:42:12;10.20;45.30
70244;DHT22;57634;51.136;17.024;2023-03-12T12:45:15;10.20;45.10
70244;DHT22;57634;51.136;17.024;2023-03-12T12:48:23;10.30;45.10
70244;DHT22;57634;51.136;17.024;2023-03-12T12:51:38;10.30;45.00
70244;DHT22;57634;51.136;17.024;2023-03-12T12:55:32;10.20;45.00
70244;DHT22;57634;51.136;17.024;2023-03-12T12:58:22;10.20;45.00
70244;DHT22;57634;51.136;17.024;2023-03-12T13:01:28;10.30;45.10
70244;DHT22;57634;51.136;17.024;2023-03-12T13:04:37;10.40;45.10
70244;DHT22;57634;51.136;17.024;2023-03-12T13:07:39;10.40;45.10
70244;DHT22;57634;51.136;17.024;2023-03-12T13:10:41;10.40;45.10
70244;DHT22;57634;51.136;17.024;2023-03-12T13:13:48;10.40;45.10
70244;DHT22;57634;51.136;17.024;2023-03-12T13:20:45;10.30;45.10
70244;DHT22;57634;51.136;17.024;2023-03-12T13:30:48;10.50;44.90
70244;DHT22;57634;51.136;17.024;2023-03-12T13:33:55;10.50;44.90
70244;DHT22;57634;51.136;17.024;2023-03-12T13:37:00;10.60;44.90
70244;DHT22;57634;51.136;17.024;2023-03-12T13:40:31;10.60;44.50
70244;DHT22;57634;51.136;17.024;2023-03-12T13:43:15;10.50;44.40
70244;DHT22;57634;51.136;17.024;2023-03-12T13:46:31;10.40;44.50
70244;DHT22;57634;51.136;17.024;2023-03-12T13:53:21;10.30;44.80
70244;DHT22;57634;51.136;17.024;2023-03-12T13:56:30;10.20;44.80
70244;DHT22;57634;51.136;17.024;2023-03-12T13:59:32;10.20;44.90
70244;DHT22;57634;51.136;17.024;2023-03-12T14:02:38;10.10;44.80
70244;DHT22;57634;51.136;17.024;2023-03-12T14:05:49;10.10;45.00
70244;DHT22;57634;51.136;17.024;2023-03-12T14:12:38;10.10;45.10
70244;DHT22;57634;51.136;17.024;2023-03-12T14:18:55;10.20;45.10
70244;DHT22;57634;51.136;17.024;2023-03-12T14:22:02;10.10;45.10
70244;DHT22;57634;51.136;17.024;2023-03-12T14:25:35;10.10;45.10
70244;DHT22;57634;51.136;17.024;2023-03-12T14:28:40;10.00;45.50
70244;DHT22;57634;51.136;17.024;2023-03-12T14:31:42;9.90;45.50
70244;DHT22;57634;51.136;17.024;2023-03-12T14:34:53;9.90;45.60
70244;DHT22;57634;51.136;17.024;2023-03-12T14:38:06;9.80;45.60
70244;DHT22;57634;51.136;17.024;2023-03-12T14:41:21;9.80;45.80
70244;DHT22;57634;51.136;17.024;2023-03-12T14:44:56;9.70;46.00
70244;DHT22;57634;51.136;17.024;2023-03-12T14:47:58;9.60;46.20
70244;DHT22;57634;51.136;17.024;2023-03-12T14:51:01;9.40;46.30
70244;DHT22;57634;51.136;17.024;2023-03-12T14:54:03;9.30;46.60
70244;DHT22;57634;51.136;17.024;2023-03-12T14:57:05;9.10;46.90
70244;DHT22;57634;51.136;17.024;2023-03-12T15:00:22;9.10;47.10
70244;DHT22;57634;51.136;17.024;2023-03-12T15:03:17;9.00;47.50
70244;DHT22;57634;51.136;17.024;2023-03-12T15:06:28;9.00;47.70
70244;DHT22;57634;51.136;17.024;2023-03-12T15:09:55;9.00;47.80
70244;DHT22;57634;51.136;17.024;2023-03-12T15:12:58;8.90;47.90
70244;DHT22;57634;51.136;17.024;2023-03-12T15:16:00;8.90;47.90
70244;DHT22;57634;51.136;17.024;2023-03-12T15:19:03;8.80;47.90
70244;DHT22;57634;51.136;17.024;2023-03-12T15:22:10;8.70;47.90
70244;DHT22;57634;51.136;17.024;2023-03-12T15:28:27;8.60;48.40
70244;DHT22;57634;51.136;17.024;2023-03-12T15:35:12;8.50;48.40
70244;DHT22;57634;51.136;17.024;2023-03-12T15:38:16;8.40;48.30
70244;DHT22;57634;51.136;17.024;2023-03-12T15:41:21;8.40;48.20
70244;DHT22;57634;51.136;17.024;2023-03-12T15:44:26;8.30;48.30
70244;DHT22;57634;51.136;17.024;2023-03-12T15:47:30;8.20;48.40
70244;DHT22;57634;51.136;17.024;2023-03-12T15:50:41;8.10;48.20
70244;DHT22;57634;51.136;17.024;2023-03-12T15:53:43;8.10;48.00
70244;DHT22;57634;51.136;17.024;2023-03-12T15:56:44;8.00;47.50
70244;DHT22;57634;51.136;17.024;2023-03-12T16:03:21;7.80;47.10
70244;DHT22;57634;51.136;17.024;2023-03-12T16:06:25;7.70;46.80
70244;DHT22;57634;51.136;17.024;2023-03-12T16:09:31;7.60;46.40
70244;DHT22;57634;51.136;17.024;2023-03-12T16:12:33;7.50;46.50
70244;DHT22;57634;51.136;17.024;2023-03-12T16:15:37;7.50;46.50
70244;DHT22;57634;51.136;17.024;2023-03-12T16:18:40;7.40;46.20
70244;DHT22;57634;51.136;17.024;2023-03-12T16:21:42;7.30;46.00
70244;DHT22;57634;51.136;17.024;2023-03-12T16:24:44;7.30;46.20
70244;DHT22;57634;51.136;17.024;2023-03-12T16:27:48;7.20;46.20
70244;DHT22;57634;51.136;17.024;2023-03-12T16:30:52;7.20;46.40
70244;DHT22;57634;51.136;17.024;2023-03-12T16:34:22;7.20;46.40
70244;DHT22;57634;51.136;17.024;2023-03-12T16:37:24;7.10;46.40
70244;DHT22;57634;51.136;17.024;2023-03-12T16:40:27;7.10;46.40
70244;DHT22;57634;51.136;17.024;2023-03-12T16:43:33;7.00;46.50
70244;DHT22;57634;51.136;17.024;2023-03-12T16:46:35;7.00;46.70
70244;DHT22;57634;51.136;17.024;2023-03-12T16:49:36;7.00;46.90
70244;DHT22;57634;51.136;17.024;2023-03-12T16:52:37;7.00;47.10
70244;DHT22;57634;51.136;17.024;2023-03-12T16:55:44;7.00;47.30
70244;DHT22;57634;51.136;17.024;2023-03-12T16:58:47;7.00;47.50
70244;DHT22;57634;51.136;17.024;2023-03-12T17:01:54;7.00;47.60
70244;DHT22;57634;51.136;17.024;2023-03-12T17:05:25;7.00;47.80
70244;DHT22;57634;51.136;17.024;2023-03-12T17:08:26;7.00;48.20
70244;DHT22;57634;51.136;17.024;2023-03-12T17:11:30;7.00;48.40
70244;DHT22;57634;51.136;17.024;2023-03-12T17:14:34;7.00;48.70
70244;DHT22;57634;51.136;17.024;2023-03-12T17:17:36;6.90;49.00
70244;DHT22;57634;51.136;17.024;2023-03-12T17:20:40;6.90;49.20
70244;DHT22;57634;51.136;17.024;2023-03-12T17:23:43;6.90;49.50
70244;DHT22;57634;51.136;17.024;2023-03-12T17:26:46;6.90;49.80
70244;DHT22;57634;51.136;17.024;2023-03-12T17:29:52;6.90;50.00
70244;DHT22;57634;51.136;17.024;2023-03-12T17:33:02;6.90;50.30
70244;DHT22;57634;51.136;17.024;2023-03-12T17:36:30;6.90;50.50
70244;DHT22;57634;51.136;17.024;2023-03-12T17:39:33;6.90;50.90
70244;DHT22;57634;51.136;17.024;2023-03-12T17:42:36;6.90;51.10
70244;DHT22;57634;51.136;17.024;2023-03-12T17:45:37;6.90;51.30
70244;DHT22;57634;51.136;17.024;2023-03-12T17:48:39;6.80;51.50
70244;DHT22;57634;51.136;17.024;2023-03-12T17:51:41;6.90;51.70
70244;DHT22;57634;51.136;17.024;2023-03-12T17:54:44;6.90;51.90
70244;DHT22;57634;51.136;17.024;2023-03-12T17:57:45;6.90;52.10
70244;DHT22;57634;51.136;17.024;2023-03-12T18:00:47;6.90;52.20
70244;DHT22;57634;51.136;17.024;2023-03-12T18:03:49;6.90;52.20
70244;DHT22;57634;51.136;17.024;2023-03-12T18:06:50;6.90;52.30
70244;DHT22;57634;51.136;17.024;2023-03-12T18:09:53;6.90;52.40
70244;DHT22;57634;51.136;17.024;2023-03-12T18:12:54;6.90;52.50
70244;DHT22;57634;51.136;17.024;2023-03-12T18:16:22;6.90;52.60
70244;DHT22;57634;51.136;17.024;2023-03-12T18:19:24;6.90;52.90
70244;DHT22;57634;51.136;17.024;2023-03-12T18:22:29;6.80;53.10
70244;DHT22;57634;51.136;17.024;2023-03-12T18:25:30;6.90;53.30
70244;DHT22;57634;51.136;17.024;2023-03-12T18:28:31;6.80;53.40
70244;DHT22;57634;51.136;17.024;2023-03-12T18:31:33;6.90;53.60
70244;DHT22;57634;51.136;17.024;2023-03-12T18:34:34;6.90;53.60
70244;DHT22;57634;51.136;17.024;2023-03-12T18:37:40;6.90;53.70
70244;DHT22;57634;51.136;17.024;2023-03-12T18:40:43;6.90;53.70
70244;DHT22;57634;51.136;17.024;2023-03-12T18:43:45;6.90;53.80
70244;DHT22;57634;51.136;17.024;2023-03-12T18:46:46;6.90;53.80
70244;DHT22;57634;51.136;17.024;2023-03-12T18:49:50;6.90;53.90
70244;DHT22;57634;51.136;17.024;2023-03-12T18:53:21;6.90;54.00
70244;DHT22;57634;51.136;17.024;2023-03-12T18:56:22;6.90;54.10
70244;DHT22;57634;51.136;17.024;2023-03-12T18:59:23;6.90;54.20
70244;DHT22;57634;51.136;17.024;2023-03-12T19:02:25;6.90;54.20
70244;DHT22;57634;51.136;17.024;2023-03-12T19:05:26;6.90;54.20
70244;DHT22;57634;51.136;17.024;2023-03-12T19:08:28;6.90;54.20
70244;DHT22;57634;51.136;17.024;2023-03-12T19:11:29;6.90;54.30
70244;DHT22;57634;51.136;17.024;2023-03-12T19:14:30;6.90;54.20
70244;DHT22;57634;51.136;17.024;2023-03-12T19:17:31;6.90;54.20
70244;DHT22;57634;51.136;17.024;2023-03-12T19:20:33;6.90;54.20
70244;DHT22;57634;51.136;17.024;2023-03-12T19:23:36;6.90;54.20
70244;DHT22;57634;51.136;17.024;2023-03-12T19:26:39;6.90;54.20
70244;DHT22;57634;51.136;17.024;2023-03-12T19:29:40;6.90;54.20
70244;DHT22;57634;51.136;17.024;2023-03-12T19:32:42;6.90;54.20
70244;DHT22;57634;51.136;17.024;2023-03-12T19:36:10;6.90;54.20
70244;DHT22;57634;51.136;17.024;2023-03-12T19:39:11;6.90;54.30
70244;DHT22;57634;51.136;17.024;2023-03-12T19:42:12;6.90;54.40
70244;DHT22;57634;51.136;17.024;2023-03-12T19:45:14;6.90;54.50
70244;DHT22;57634;51.136;17.024;2023-03-12T19:48:15;6.80;54.50
70244;DHT22;57634;51.136;17.024;2023-03-12T19:51:16;6.80;54.60
70244;DHT22;57634;51.136;17.024;2023-03-12T19:54:17;6.80;54.70
70244;DHT22;57634;51.136;17.024;2023-03-12T19:57:20;6.80;54.80
70244;DHT22;57634;51.136;17.024;2023-03-12T20:00:21;6.90;55.00
70244;DHT22;57634;51.136;17.024;2023-03-12T20:03:22;6.90;55.10
70244;DHT22;57634;51.136;17.024;2023-03-12T20:06:24;6.90;55.10
70244;DHT22;57634;51.136;17.024;2023-03-12T20:09:25;6.90;55.20
70244;DHT22;57634;51.136;17.024;2023-03-12T20:12:26;6.90;55.20
70244;DHT22;57634;51.136;17.024;2023-03-12T20:15:27;6.90;55.20
70244;DHT22;57634;51.136;17.024;2023-03-12T20:18:29;6.90;55.20
70244;DHT22;57634;51.136;17.024;2023-03-12T20:21:56;7.00;55.40
70244;DHT22;57634;51.136;17.024;2023-03-12T20:24:58;6.90;55.50
70244;DHT22;57634;51.136;17.024;2023-03-12T20:28:00;7.00;55.60
70244;DHT22;57634;51.136;17.024;2023-03-12T20:31:11;7.00;55.70
70244;DHT22;57634;51.136;17.024;2023-03-12T20:34:12;7.00;55.80
70244;DHT22;57634;51.136;17.024;2023-03-12T20:37:13;7.00;56.00
70244;DHT22;57634;51.136;17.024;2023-03-12T20:40:15;7.00;56.00
70244;DHT22;57634;51.136;17.024;2023-03-12T20:43:16;7.00;56.10
70244;DHT22;57634;51.136;17.024;2023-03-12T20:46:18;7.00;56.30
70244;DHT22;57634;51.136;17.024;2023-03-12T20:49:19;7.00;56.50
70244;DHT22;57634;51.136;17.024;2023-03-12T20:52:20;7.00;57.00
70244;DHT22;57634;51.136;17.024;2023-03-12T20:55:21;7.00;57.90
70244;DHT22;57634;51.136;17.024;2023-03-12T20:58:51;6.90;58.90
70244;DHT22;57634;51.136;17.024;2023-03-12T21:01:53;6.80;60.20
70244;DHT22;57634;51.136;17.024;2023-03-12T21:04:54;6.80;60.90
70244;DHT22;57634;51.136;17.024;2023-03-12T21:07:55;6.70;61.60
70244;DHT22;57634;51.136;17.024;2023-03-12T21:10:58;6.70;62.30
70244;DHT22;57634;51.136;17.024;2023-03-12T21:13:59;6.70;62.70
70244;DHT22;57634;51.136;17.024;2023-03-12T21:17:00;6.70;62.90
70244;DHT22;57634;51.136;17.024;2023-03-12T21:20:04;6.70;63.30